createdAt,value
2024-02-02T00:00:39.122Z,4.07
2024-02-02T00:03:26.495Z,3.63
2024-02-02T00:05:54.055Z,3.20
2024-02-02T00:08:21.803Z,3.50
2024-02-02T00:10:49.443Z,4.75
2024-02-02T00:13:16.580Z,3.72
2024-02-02T00:15:44.036Z,4.70
2024-02-02T00:18:11.356Z,4.55
2024-02-02T00:20:38.961Z,4.03
2024-02-02T00:23:06.040Z,4.03
2024-02-02T00:25:33.734Z,4.07
2024-02-02T00:28:00.865Z,3.63
2024-02-02T00:30:28.454Z,4.18
2024-02-02T00:32:55.762Z,4.78
2024-02-02T00:35:23.121Z,4.45
2024-02-02T00:37:50.220Z,4.35
2024-02-02T00:40:19.892Z,3.47
2024-02-02T00:42:48.066Z,4.45
2024-02-02T00:45:15.569Z,3.88
2024-02-02T00:47:42.903Z,3.55
2024-02-02T00:50:12.096Z,3.70
2024-02-02T00:52:39.368Z,4.38
2024-02-02T00:55:06.952Z,5.07
2024-02-02T00:57:34.125Z,4.07
2024-02-02T01:00:01.541Z,5.55
2024-02-02T01:02:30.159Z,4.22
2024-02-02T01:04:57.534Z,3.90
2024-02-02T01:07:25.062Z,4.00
2024-02-02T01:09:52.431Z,4.47
2024-02-02T01:12:19.552Z,2.92
2024-02-02T01:14:46.999Z,4.53
2024-02-02T01:17:14.385Z,4.00
2024-02-02T01:19:41.846Z,4.03
2024-02-02T01:22:09.041Z,3.20
2024-02-02T01:24:36.499Z,3.80
2024-02-02T01:27:04.195Z,4.30
2024-02-02T01:29:34.688Z,3.85
2024-02-02T01:32:02.161Z,4.55
2024-02-02T01:34:30.011Z,4.72
2024-02-02T01:36:57.233Z,3.53
2024-02-02T01:39:24.654Z,4.55
2024-02-02T01:41:51.833Z,4.93
2024-02-02T01:44:19.214Z,4.45
2024-02-02T01:46:49.221Z,4.43
2024-02-02T01:49:16.934Z,4.55
2024-02-02T01:51:44.205Z,4.25
2024-02-02T01:54:11.829Z,3.42
2024-02-02T01:56:39.145Z,4.85
2024-02-02T01:59:09.031Z,3.95
2024-02-02T02:01:36.434Z,4.70
2024-02-02T02:04:04.997Z,4.55
2024-02-02T02:06:32.857Z,5.45
2024-02-02T02:09:00.411Z,3.92
2024-02-02T02:11:27.833Z,4.28
2024-02-02T02:13:56.035Z,4.45
2024-02-02T02:16:23.243Z,3.95
2024-02-02T02:18:56.105Z,3.70
2024-02-02T02:21:30.433Z,4.18
2024-02-02T02:23:58.098Z,4.18
2024-02-02T02:26:29.568Z,4.55
2024-02-02T02:28:57.112Z,5.40
2024-02-02T02:31:24.647Z,3.88
2024-02-02T02:33:52.251Z,3.65
2024-02-02T02:36:21.952Z,3.22
2024-02-02T02:38:50.433Z,4.07
2024-02-02T02:41:17.790Z,5.82
2024-02-02T02:43:45.180Z,3.78
2024-02-02T02:46:12.792Z,3.58
2024-02-02T02:48:40.464Z,4.55
2024-02-02T02:51:07.643Z,3.47
2024-02-02T02:53:35.086Z,3.85
2024-02-02T02:56:02.256Z,3.95
2024-02-02T02:58:29.654Z,4.10
2024-02-02T03:00:57.187Z,4.32
2024-02-02T03:03:24.639Z,3.85
2024-02-02T03:05:52.013Z,3.97
2024-02-02T03:08:19.474Z,4.57
2024-02-02T03:10:46.605Z,6.53
2024-02-02T03:13:13.923Z,3.75
2024-02-02T03:15:41.446Z,4.22
2024-02-02T03:18:10.306Z,3.95
2024-02-02T03:20:37.409Z,3.83
2024-02-02T03:23:05.055Z,4.20
2024-02-02T03:25:32.208Z,3.22
2024-02-02T03:27:59.879Z,3.38
2024-02-02T03:30:28.508Z,5.78
2024-02-02T03:32:56.282Z,4.35
2024-02-02T03:35:25.441Z,4.68
2024-02-02T03:37:52.761Z,3.50
2024-02-02T03:40:20.260Z,4.22
2024-02-02T03:42:47.716Z,3.63
2024-02-02T03:45:15.058Z,4.45
2024-02-02T03:47:42.524Z,4.30
2024-02-02T03:50:10.751Z,3.45
2024-02-02T03:52:38.246Z,3.63
2024-02-02T03:55:06.021Z,3.88
2024-02-02T03:57:33.408Z,5.40
2024-02-02T04:00:00.752Z,4.13
2024-02-02T04:02:28.337Z,3.50
2024-02-02T04:04:55.675Z,4.43
2024-02-02T04:07:23.054Z,3.80
2024-02-02T04:09:50.188Z,3.30
2024-02-02T04:12:19.008Z,5.22
2024-02-02T04:14:46.171Z,4.38
2024-02-02T04:17:13.601Z,3.33
2024-02-02T04:19:40.807Z,3.55
2024-02-02T04:22:08.252Z,3.33
2024-02-02T04:24:35.469Z,3.92
2024-02-02T04:27:02.973Z,4.13
2024-02-02T04:29:30.042Z,4.20
2024-02-02T04:31:57.435Z,4.30
2024-02-02T04:34:24.916Z,4.38
2024-02-02T04:36:52.330Z,3.65
2024-02-02T04:39:19.421Z,4.32
2024-02-02T04:41:47.365Z,3.42
2024-02-02T04:44:14.445Z,3.88
2024-02-02T04:46:41.809Z,5.18
2024-02-02T04:49:09.050Z,3.80
2024-02-02T04:51:37.173Z,3.22
2024-02-02T04:54:04.381Z,4.03
2024-02-02T04:56:31.840Z,5.03
2024-02-02T04:58:58.928Z,4.35
2024-02-02T05:01:26.384Z,4.57
2024-02-02T05:03:54.352Z,5.10
2024-02-02T05:06:23.647Z,4.90
2024-02-02T05:08:50.934Z,4.13
2024-02-02T05:11:18.324Z,4.43
2024-02-02T05:13:45.532Z,3.50
2024-02-02T05:16:15.421Z,4.90
2024-02-02T05:18:43.344Z,3.40
2024-02-02T05:21:10.931Z,3.70
2024-02-02T05:23:43.675Z,4.72
2024-02-02T05:26:17.551Z,3.97
2024-02-02T05:28:44.713Z,4.05
2024-02-02T05:31:12.209Z,3.85
2024-02-02T05:33:39.604Z,4.35
2024-02-02T05:36:07.467Z,2.75
2024-02-02T05:38:34.689Z,4.15
2024-02-02T05:41:02.049Z,3.97
2024-02-02T05:43:29.111Z,4.22
2024-02-02T05:45:56.499Z,4.07
2024-02-02T05:48:23.751Z,4.60
2024-02-02T05:50:51.383Z,4.20
2024-02-02T05:53:18.595Z,4.10
2024-02-02T05:55:47.513Z,4.28
2024-02-02T05:58:14.943Z,4.40
2024-02-02T06:00:42.436Z,4.57
2024-02-02T06:03:09.804Z,4.05
2024-02-02T06:05:37.294Z,3.65
2024-02-02T06:08:07.712Z,4.45
2024-02-02T06:10:35.342Z,3.75
2024-02-02T06:13:02.481Z,4.72
2024-02-02T06:15:30.914Z,4.85
2024-02-02T06:17:58.608Z,4.20
2024-02-02T06:20:26.279Z,3.95
2024-02-02T06:22:53.580Z,3.70
2024-02-02T06:25:21.110Z,5.03
2024-02-02T06:27:48.260Z,3.03
2024-02-02T06:30:15.930Z,3.50
2024-02-02T06:32:47.238Z,4.13
2024-02-02T06:35:15.055Z,4.70
2024-02-02T06:37:42.177Z,4.22
2024-02-02T06:40:10.271Z,4.30
2024-02-02T06:42:37.588Z,4.50
2024-02-02T06:45:05.471Z,4.70
2024-02-02T06:47:32.731Z,4.78
2024-02-02T06:50:00.582Z,4.40
2024-02-02T06:52:28.405Z,4.60
2024-02-02T06:54:56.005Z,4.22
2024-02-02T06:57:23.328Z,5.07
2024-02-02T06:59:51.199Z,4.90
2024-02-02T07:02:22.455Z,5.07
2024-02-02T07:04:50.218Z,6.80
2024-02-02T07:07:18.710Z,4.28
2024-02-02T07:09:55.407Z,5.15
2024-02-02T07:12:53.805Z,5.13
2024-02-02T07:15:23.063Z,5.68
2024-02-02T07:17:51.356Z,4.22
2024-02-02T07:20:41.781Z,5.45
2024-02-02T07:23:11.520Z,4.82
2024-02-02T07:25:41.637Z,5.15
2024-02-02T07:28:31.938Z,4.97
2024-02-02T07:31:00.387Z,6.47
2024-02-02T07:33:43.383Z,6.75
2024-02-02T07:36:30.908Z,4.57
2024-02-02T07:38:58.533Z,5.00
2024-02-02T07:41:27.530Z,4.90
2024-02-02T07:43:56.157Z,5.28
2024-02-02T07:46:24.175Z,9.60
2024-02-02T07:48:54.989Z,5.32
2024-02-02T07:51:26.525Z,5.38
2024-02-02T07:53:54.428Z,4.50
2024-02-02T07:56:23.948Z,4.63
2024-02-02T07:58:51.580Z,4.65
2024-02-02T08:01:19.454Z,4.75
2024-02-02T08:03:47.815Z,4.70
2024-02-02T08:06:15.539Z,5.13
2024-02-02T08:08:43.146Z,4.25
2024-02-02T08:11:10.642Z,5.35
2024-02-02T08:13:38.387Z,13.50
2024-02-02T08:16:06.135Z,4.50
2024-02-02T08:18:33.964Z,11.98
2024-02-02T08:21:03.685Z,6.35
2024-02-02T08:23:31.788Z,14.68
2024-02-02T08:25:59.167Z,4.15
2024-02-02T08:28:26.458Z,6.20
2024-02-02T08:30:54.239Z,3.90
2024-02-02T08:33:21.668Z,4.40
2024-02-02T08:35:49.218Z,4.45
2024-02-02T08:38:18.096Z,7.75
2024-02-02T08:40:45.930Z,10.13
2024-02-02T08:43:18.021Z,4.68
2024-02-02T08:45:57.589Z,4.22
2024-02-02T08:48:24.967Z,4.75
2024-02-02T08:50:55.025Z,4.13
2024-02-02T08:53:22.211Z,4.05
2024-02-02T08:55:52.786Z,4.07
2024-02-02T08:58:24.889Z,5.90
2024-02-02T09:00:53.042Z,3.53
2024-02-02T09:03:27.808Z,4.72
2024-02-02T09:06:00.362Z,4.78
2024-02-02T09:08:40.566Z,5.20
2024-02-02T09:11:18.404Z,5.20
2024-02-02T09:13:46.348Z,4.40
2024-02-02T09:16:18.741Z,4.32
2024-02-02T09:18:53.433Z,4.18
2024-02-02T09:21:25.229Z,4.43
2024-02-02T09:23:52.431Z,4.60
2024-02-02T09:26:41.436Z,4.80
2024-02-02T09:29:10.731Z,4.75
2024-02-02T09:31:39.266Z,5.20
2024-02-02T09:34:10.163Z,4.07
2024-02-02T09:36:40.958Z,5.30
2024-02-02T09:39:33.956Z,3.30
2024-02-02T09:42:30.633Z,4.03
2024-02-02T09:45:07.985Z,5.68
2024-02-02T09:48:04.591Z,5.47
2024-02-02T09:51:08.856Z,3.67
2024-02-02T09:53:59.505Z,5.28
2024-02-02T09:56:41.901Z,5.47
2024-02-02T09:59:41.073Z,5.43
2024-02-02T10:02:44.812Z,4.07
2024-02-02T10:05:33.303Z,5.20
2024-02-02T10:08:09.461Z,5.13
2024-02-02T10:11:04.926Z,4.93
2024-02-02T10:13:52.639Z,3.92
2024-02-02T10:16:27.942Z,5.38
2024-02-02T10:19:36.880Z,6.00
2024-02-02T10:22:08.002Z,5.13
2024-02-02T10:25:02.971Z,4.55
2024-02-02T10:27:43.240Z,5.95
2024-02-02T10:30:19.479Z,12.25
2024-02-02T10:33:09.553Z,5.22
2024-02-02T10:35:40.623Z,5.25
2024-02-02T10:38:27.613Z,4.43
2024-02-02T10:41:44.833Z,6.33
2024-02-02T10:44:14.920Z,4.63
2024-02-02T10:47:03.192Z,4.07
2024-02-02T10:49:48.977Z,5.65
2024-02-02T10:52:46.996Z,4.10
2024-02-02T10:55:20.489Z,5.20
2024-02-02T10:58:04.005Z,5.22
2024-02-02T11:00:55.558Z,5.15
2024-02-02T11:03:36.316Z,6.53
2024-02-02T11:06:17.291Z,9.57
2024-02-02T11:08:57.656Z,8.10
2024-02-02T11:11:28.847Z,5.07
2024-02-02T11:14:10.400Z,7.82
2024-02-02T11:16:37.748Z,8.25
2024-02-02T11:19:35.387Z,12.25
2024-02-02T11:22:21.185Z,6.72
2024-02-02T11:25:05.469Z,6.35
2024-02-02T11:27:54.773Z,5.82
2024-02-02T11:30:36.776Z,5.05
2024-02-02T11:33:26.225Z,5.15
2024-02-02T11:36:12.170Z,9.32
2024-02-02T11:38:52.452Z,9.95
2024-02-02T11:41:21.219Z,7.50
2024-02-02T11:43:50.290Z,6.85
2024-02-02T11:46:23.275Z,5.75
2024-02-02T11:48:54.833Z,6.70
2024-02-02T11:51:22.901Z,5.38
2024-02-02T11:54:03.808Z,6.22
2024-02-02T11:56:34.626Z,10.73
2024-02-02T11:59:12.408Z,7.00
2024-02-02T12:01:54.693Z,9.23
2024-02-02T12:04:30.947Z,7.85
2024-02-02T12:07:20.517Z,5.35
2024-02-02T12:10:03.968Z,7.55
2024-02-02T12:12:56.147Z,5.97
2024-02-02T12:15:24.293Z,7.47
2024-02-02T12:17:51.548Z,5.68
2024-02-02T12:20:19.927Z,7.07
2024-02-02T12:22:48.331Z,6.70
2024-02-02T12:25:16.853Z,6.57
2024-02-02T12:27:44.103Z,7.60
2024-02-02T12:30:13.046Z,7.32
2024-02-02T12:32:40.387Z,6.93
2024-02-02T12:35:08.264Z,6.05
2024-02-02T12:37:52.181Z,5.82
2024-02-02T12:40:26.456Z,7.28
2024-02-02T12:42:57.630Z,7.70
2024-02-02T12:45:25.080Z,8.57
2024-02-02T12:47:53.784Z,6.78
2024-02-02T12:50:22.868Z,8.90
2024-02-02T12:52:52.425Z,5.78
2024-02-02T12:55:20.111Z,6.50
2024-02-02T12:57:47.432Z,7.60
2024-02-02T13:00:15.775Z,5.95
2024-02-02T13:02:44.916Z,7.80
2024-02-02T13:05:20.586Z,10.00
2024-02-02T13:07:49.928Z,6.70
2024-02-02T13:10:53.928Z,7.95
2024-02-02T13:13:23.486Z,7.90
2024-02-02T13:15:50.833Z,8.10
2024-02-02T13:18:21.238Z,8.02
2024-02-02T13:20:53.019Z,6.90
2024-02-02T13:23:25.722Z,7.35
2024-02-02T13:26:00.453Z,7.28
2024-02-02T13:28:40.222Z,7.65
2024-02-02T13:31:16.443Z,7.18
2024-02-02T13:33:56.055Z,6.07
2024-02-02T13:36:24.171Z,7.53
2024-02-02T13:38:56.182Z,8.32
2024-02-02T13:41:24.020Z,7.38
2024-02-02T13:43:58.098Z,7.95
2024-02-02T13:46:27.184Z,11.23
2024-02-02T13:48:59.508Z,6.57
2024-02-02T13:51:29.260Z,7.90
2024-02-02T13:53:56.767Z,9.18
2024-02-02T13:56:26.217Z,6.57
2024-02-02T13:58:53.717Z,8.00
2024-02-02T14:01:22.936Z,7.18
2024-02-02T14:03:55.544Z,7.50
2024-02-02T14:06:24.887Z,7.68
2024-02-02T14:08:54.813Z,7.68
2024-02-02T14:11:26.553Z,9.43
2024-02-02T14:13:55.519Z,8.23
2024-02-02T14:16:24.331Z,8.60
2024-02-02T14:19:05.860Z,7.13
2024-02-02T14:21:38.238Z,10.43
2024-02-02T14:24:09.634Z,8.00
2024-02-02T14:26:54.261Z,9.20
2024-02-02T14:29:23.462Z,10.93
2024-02-02T14:31:58.826Z,10.60
2024-02-02T14:34:28.134Z,8.45
2024-02-02T14:36:56.112Z,8.65
2024-02-02T14:39:27.589Z,12.38
2024-02-02T14:41:56.262Z,10.73
2024-02-02T14:44:24.817Z,10.73
2024-02-02T14:46:52.498Z,16.88
2024-02-02T14:49:22.902Z,15.40
2024-02-02T14:51:51.611Z,9.40
2024-02-02T14:54:19.038Z,11.48
2024-02-02T14:56:46.709Z,11.50
2024-02-02T14:59:21.595Z,10.60
2024-02-02T15:01:49.311Z,10.43
2024-02-02T15:04:17.184Z,10.82
2024-02-02T15:06:45.556Z,9.88
2024-02-02T15:09:17.698Z,10.88
2024-02-02T15:11:46.207Z,9.30
2024-02-02T15:14:14.744Z,14.27
2024-02-02T15:16:42.141Z,12.18
2024-02-02T15:19:09.290Z,12.30
2024-02-02T15:21:37.079Z,20.20
2024-02-02T15:24:04.511Z,12.10
2024-02-02T15:26:38.589Z,8.93
2024-02-02T15:29:05.807Z,13.05
2024-02-02T15:31:34.077Z,9.18
2024-02-02T15:34:06.107Z,14.48
2024-02-02T15:36:35.703Z,9.48
2024-02-02T15:39:18.566Z,8.68
2024-02-02T15:41:54.111Z,10.55
2024-02-02T15:44:21.355Z,10.95
2024-02-02T15:46:48.832Z,9.40
2024-02-02T15:49:16.197Z,10.38
2024-02-02T15:51:43.692Z,9.32
2024-02-02T15:54:11.105Z,9.60
2024-02-02T15:56:38.534Z,10.05
2024-02-02T15:59:06.146Z,9.85
2024-02-02T16:01:33.741Z,14.70
2024-02-02T16:04:01.026Z,32.08
2024-02-02T16:06:29.200Z,28.13
2024-02-02T16:08:56.643Z,16.77
2024-02-02T16:11:24.176Z,12.00
2024-02-02T16:13:54.593Z,13.85
2024-02-02T16:16:22.000Z,14.30
2024-02-02T16:18:49.378Z,15.73
2024-02-02T16:21:17.002Z,22.70
2024-02-02T16:23:44.191Z,15.25
2024-02-02T16:26:11.774Z,14.75
2024-02-02T16:28:38.856Z,15.95
2024-02-02T16:31:06.297Z,15.75
2024-02-02T16:33:33.750Z,14.27
2024-02-02T16:36:01.522Z,18.08
2024-02-02T16:38:29.074Z,15.85
2024-02-02T16:40:56.506Z,14.20
2024-02-02T16:43:23.704Z,14.68
2024-02-02T16:45:51.101Z,15.35
2024-02-02T16:48:19.724Z,16.02
2024-02-02T16:50:47.101Z,15.40
2024-02-02T16:53:14.238Z,14.63
2024-02-02T16:55:41.739Z,15.32
2024-02-02T16:58:09.395Z,14.15
2024-02-02T17:00:37.545Z,14.57
2024-02-02T17:03:05.163Z,12.50
2024-02-02T17:05:32.757Z,13.90
2024-02-02T17:08:00.028Z,14.20
2024-02-02T17:10:27.644Z,14.15
2024-02-02T17:12:54.807Z,16.20
2024-02-02T17:15:22.473Z,15.98
2024-02-02T17:17:49.673Z,23.38
2024-02-02T17:20:19.171Z,23.70
2024-02-02T17:22:46.476Z,16.73
2024-02-02T17:25:13.997Z,16.77
2024-02-02T17:27:42.591Z,15.65
2024-02-02T17:30:14.235Z,15.80
2024-02-02T17:32:41.509Z,15.57
2024-02-02T17:35:10.237Z,14.73
2024-02-02T17:37:37.934Z,16.30
2024-02-02T17:40:06.616Z,14.57
2024-02-02T17:42:33.802Z,15.55
2024-02-02T17:45:01.292Z,17.20
2024-02-02T17:47:28.626Z,14.63
2024-02-02T17:49:57.272Z,15.85
2024-02-02T17:52:25.709Z,17.83
2024-02-02T17:54:53.132Z,16.25
2024-02-02T17:57:20.557Z,14.93
2024-02-02T17:59:48.022Z,13.23
2024-02-02T18:02:15.818Z,15.63
2024-02-02T18:04:43.283Z,17.42
2024-02-02T18:07:12.922Z,17.75
2024-02-02T18:09:41.499Z,17.80
2024-02-02T18:12:15.201Z,12.93
2024-02-02T18:14:42.688Z,16.90
2024-02-02T18:17:10.470Z,15.35
2024-02-02T18:19:38.361Z,17.67
2024-02-02T18:22:05.639Z,19.35
2024-02-02T18:24:33.084Z,17.55
2024-02-02T18:27:00.511Z,20.15
2024-02-02T18:29:28.072Z,19.02
2024-02-02T18:31:55.371Z,20.13
2024-02-02T18:34:23.136Z,25.73
2024-02-02T18:36:50.676Z,18.10
2024-02-02T18:39:20.894Z,28.65
2024-02-02T18:41:48.007Z,21.10
2024-02-02T18:44:15.337Z,19.50
2024-02-02T18:46:42.456Z,22.95
2024-02-02T18:49:10.068Z,20.02
2024-02-02T18:51:37.243Z,20.15
2024-02-02T18:54:05.172Z,23.33
2024-02-02T18:56:32.491Z,29.77
2024-02-02T18:58:59.900Z,21.75
2024-02-02T19:01:33.463Z,19.45
2024-02-02T19:04:01.443Z,24.25
2024-02-02T19:06:28.909Z,23.08
2024-02-02T19:08:57.389Z,15.55
2024-02-02T19:11:24.470Z,22.50
2024-02-02T19:13:51.973Z,24.20
2024-02-02T19:16:26.227Z,57.10
2024-02-02T19:18:54.081Z,19.45
2024-02-02T19:21:30.927Z,18.30
2024-02-02T19:24:00.005Z,29.38
2024-02-02T19:26:27.195Z,41.05
2024-02-02T19:28:54.651Z,25.73
2024-02-02T19:31:26.312Z,18.65
2024-02-02T19:33:53.997Z,18.73
2024-02-02T19:36:27.367Z,19.52
2024-02-02T19:38:56.146Z,29.42
2024-02-02T19:41:26.553Z,17.17
2024-02-02T19:43:54.303Z,18.10
2024-02-02T19:46:26.858Z,17.35
2024-02-02T19:48:55.960Z,33.25
2024-02-02T19:51:25.236Z,37.22
2024-02-02T19:53:52.928Z,18.05
2024-02-02T19:56:20.122Z,19.15
2024-02-02T19:58:48.812Z,21.83
2024-02-02T20:01:17.523Z,17.75
2024-02-02T20:03:46.600Z,14.30
2024-02-02T20:06:15.207Z,19.67
2024-02-02T20:08:44.102Z,16.92
2024-02-02T20:11:16.399Z,15.95
2024-02-02T20:13:44.429Z,17.20
2024-02-02T20:16:17.267Z,15.15
2024-02-02T20:18:45.444Z,15.32
2024-02-02T20:21:14.660Z,15.48
2024-02-02T20:23:43.638Z,13.40
2024-02-02T20:26:16.632Z,15.18
2024-02-02T20:28:44.335Z,13.40
2024-02-02T20:31:11.923Z,15.18
2024-02-02T20:33:39.436Z,14.27
2024-02-02T20:36:06.952Z,23.58
2024-02-02T20:38:34.479Z,17.05
2024-02-02T20:41:06.396Z,15.25
2024-02-02T20:43:34.126Z,15.70
2024-02-02T20:46:01.342Z,21.73
2024-02-02T20:48:28.776Z,24.08
2024-02-02T20:50:56.141Z,17.38
2024-02-02T20:53:23.722Z,21.27
2024-02-02T20:55:50.777Z,16.73
2024-02-02T20:58:18.371Z,17.10
2024-02-02T21:00:45.946Z,17.02
2024-02-02T21:03:14.315Z,20.40
2024-02-02T21:05:41.797Z,15.52
2024-02-02T21:08:09.232Z,14.15
2024-02-02T21:10:36.472Z,24.20
2024-02-02T21:13:04.131Z,19.58
2024-02-02T21:15:35.162Z,22.05
2024-02-02T21:18:10.901Z,18.30
2024-02-02T21:20:44.628Z,18.08
2024-02-02T21:23:13.432Z,16.90
2024-02-02T21:25:44.398Z,13.30
2024-02-02T21:28:11.981Z,17.65
2024-02-02T21:30:39.177Z,19.13
2024-02-02T21:33:06.688Z,20.80
2024-02-02T21:35:33.874Z,18.67
2024-02-02T21:38:01.323Z,17.77
2024-02-02T21:40:28.703Z,18.25
2024-02-02T21:42:56.638Z,29.92
2024-02-02T21:45:23.841Z,17.42
2024-02-02T21:47:51.424Z,20.10
2024-02-02T21:50:18.713Z,17.13
2024-02-02T21:52:46.242Z,16.67
2024-02-02T21:55:13.401Z,16.80
2024-02-02T21:57:40.869Z,20.10
2024-02-02T22:00:08.752Z,15.48
2024-02-02T22:02:36.224Z,15.15
2024-02-02T22:05:04.060Z,20.42
2024-02-02T22:07:31.656Z,16.85
2024-02-02T22:10:00.906Z,17.20
2024-02-02T22:12:28.350Z,18.13
2024-02-02T22:14:55.519Z,17.35
2024-02-02T22:17:22.906Z,15.57
2024-02-02T22:19:50.127Z,15.88
2024-02-02T22:22:17.515Z,16.10
2024-02-02T22:24:45.467Z,17.77
2024-02-02T22:27:14.963Z,15.32
2024-02-02T22:29:42.844Z,16.13
2024-02-02T22:32:10.313Z,15.57
2024-02-02T22:34:38.413Z,17.00
2024-02-02T22:37:05.852Z,15.65
2024-02-02T22:39:33.017Z,15.95
2024-02-02T22:42:00.427Z,17.38
2024-02-02T22:44:27.639Z,15.82
2024-02-02T22:46:54.932Z,16.63
2024-02-02T22:49:22.087Z,16.33
2024-02-02T22:51:49.826Z,17.60
2024-02-02T22:54:18.637Z,19.15
2024-02-02T22:56:49.340Z,16.42
2024-02-02T22:59:16.758Z,16.23
2024-02-02T23:01:44.300Z,17.50
2024-02-02T23:04:11.606Z,16.13
2024-02-02T23:06:39.154Z,17.27
2024-02-02T23:09:06.896Z,16.95
2024-02-02T23:11:34.346Z,17.70
2024-02-02T23:14:01.395Z,16.58
2024-02-02T23:16:28.800Z,16.13
2024-02-02T23:18:56.074Z,20.55
2024-02-02T23:21:23.618Z,16.30
2024-02-02T23:23:50.694Z,15.90
2024-02-02T23:26:18.381Z,16.25
2024-02-02T23:28:45.485Z,16.98
2024-02-02T23:31:12.964Z,18.23
2024-02-02T23:33:42.227Z,18.20
2024-02-02T23:36:09.965Z,16.98
2024-02-02T23:38:37.039Z,17.85
2024-02-02T23:41:04.511Z,17.88
2024-02-02T23:43:31.681Z,16.73
2024-02-02T23:45:59.064Z,17.23
2024-02-02T23:48:26.509Z,17.17
2024-02-02T23:50:53.943Z,17.00
2024-02-02T23:53:21.107Z,17.13
2024-02-02T23:55:48.419Z,16.42
2024-02-02T23:58:15.541Z,15.50
